sensor_id;sensor_type;location;lat;lon;timestamp;P1;P2;P0
61542;PMS5003;47414;43.168;44.812;2022-09-09T00:05:04;33.50;32.00;22.00
61542;PMS5003;47414;43.168;44.812;2022-09-09T00:15:19;53.75;44.00;30.00
61542;PMS5003;47414;43.168;44.812;2022-09-09T00:20:27;36.00;35.00;23.50
61542;PMS5003;47414;43.168;44.812;2022-09-09T00:25:31;39.75;35.25;25.00
61542;PMS5003;47414;43.168;44.812;2022-09-09T00:30:34;42.00;37.75;25.50
61542;PMS5003;47414;43.168;44.812;2022-09-09T00:35:38;48.75;41.25;28.00
61542;PMS5003;47414;43.168;44.812;2022-09-09T00:40:49;48.75;39.00;27.00
61542;PMS5003;47414;43.168;44.812;2022-09-09T00:45:57;45.25;39.00;27.00
61542;PMS5003;47414;43.168;44.812;2022-09-09T00:51:05;41.00;34.50;24.00
61542;PMS5003;47414;43.168;44.812;2022-09-09T00:56:13;46.00;38.00;25.00
61542;PMS5003;47414;43.168;44.812;2022-09-09T01:01:13;44.25;38.75;26.00
61542;PMS5003;47414;43.168;44.812;2022-09-09T01:11:42;36.80;34.00;24.00
61542;PMS5003;47414;43.168;44.812;2022-09-09T01:16:43;34.00;33.00;24.00
61542;PMS5003;47414;43.168;44.812;2022-09-09T01:21:57;31.50;29.00;19.00
61542;PMS5003;47414;43.168;44.812;2022-09-09T01:27:00;36.25;34.25;23.75
61542;PMS5003;47414;43.168;44.812;2022-09-09T01:32:35;29.25;27.25;19.00
61542;PMS5003;47414;43.168;44.812;2022-09-09T01:37:22;26.50;26.50;19.50
61542;PMS5003;47414;43.168;44.812;2022-09-09T01:42:23;29.75;29.00;19.00
61542;PMS5003;47414;43.168;44.812;2022-09-09T01:47:23;15.25;15.25;12.50
61542;PMS5003;47414;43.168;44.812;2022-09-09T01:52:24;19.25;18.75;13.75
61542;PMS5003;47414;43.168;44.812;2022-09-09T01:57:25;21.00;20.50;14.50
61542;PMS5003;47414;43.168;44.812;2022-09-09T02:12:31;27.25;27.25;19.25
61542;PMS5003;47414;43.168;44.812;2022-09-09T02:17:32;28.00;26.50;18.50
61542;PMS5003;47414;43.168;44.812;2022-09-09T02:22:34;20.75;18.75;14.00
61542;PMS5003;47414;43.168;44.812;2022-09-09T02:27:35;23.75;22.75;15.25
61542;PMS5003;47414;43.168;44.812;2022-09-09T02:32:36;22.50;20.50;15.00
61542;PMS5003;47414;43.168;44.812;2022-09-09T02:37:38;19.00;17.75;12.25
61542;PMS5003;47414;43.168;44.812;2022-09-09T02:42:39;14.50;14.50;11.00
61542;PMS5003;47414;43.168;44.812;2022-09-09T02:58:02;16.25;15.50;10.75
61542;PMS5003;47414;43.168;44.812;2022-09-09T03:03:04;14.50;13.00;10.00
61542;PMS5003;47414;43.168;44.812;2022-09-09T03:08:04;17.00;16.00;11.25
61542;PMS5003;47414;43.168;44.812;2022-09-09T03:13:05;16.75;16.75;11.50
61542;PMS5003;47414;43.168;44.812;2022-09-09T03:18:06;13.50;13.00;9.00
61542;PMS5003;47414;43.168;44.812;2022-09-09T03:23:06;16.00;15.25;10.25
61542;PMS5003;47414;43.168;44.812;2022-09-09T03:28:06;16.25;15.50;11.00
61542;PMS5003;47414;43.168;44.812;2022-09-09T03:33:07;14.25;13.00;8.00
61542;PMS5003;47414;43.168;44.812;2022-09-09T03:38:07;16.50;15.50;11.50
61542;PMS5003;47414;43.168;44.812;2022-09-09T03:43:07;12.50;12.00;8.25
61542;PMS5003;47414;43.168;44.812;2022-09-09T03:48:08;12.25;11.50;8.00
61542;PMS5003;47414;43.168;44.812;2022-09-09T03:53:08;13.00;12.75;10.25
61542;PMS5003;47414;43.168;44.812;2022-09-09T03:58:08;10.00;10.00;7.00
61542;PMS5003;47414;43.168;44.812;2022-09-09T04:03:09;11.00;11.00;8.00
61542;PMS5003;47414;43.168;44.812;2022-09-09T04:08:12;11.50;11.00;8.00
61542;PMS5003;47414;43.168;44.812;2022-09-09T04:13:21;11.00;11.00;8.25
61542;PMS5003;47414;43.168;44.812;2022-09-09T04:18:21;12.00;11.00;7.25
61542;PMS5003;47414;43.168;44.812;2022-09-09T04:23:23;11.25;11.00;8.25
61542;PMS5003;47414;43.168;44.812;2022-09-09T04:28:24;10.00;10.00;6.00
61542;PMS5003;47414;43.168;44.812;2022-09-09T04:33:25;10.25;10.25;8.25
61542;PMS5003;47414;43.168;44.812;2022-09-09T04:38:25;10.50;10.25;7.00
61542;PMS5003;47414;43.168;44.812;2022-09-09T04:43:25;7.25;7.25;5.00
61542;PMS5003;47414;43.168;44.812;2022-09-09T04:48:26;8.00;8.00;5.50
61542;PMS5003;47414;43.168;44.812;2022-09-09T04:53:26;6.50;6.25;4.00
61542;PMS5003;47414;43.168;44.812;2022-09-09T04:58:27;3.00;2.50;0.00
61542;PMS5003;47414;43.168;44.812;2022-09-09T05:03:27;12.75;11.50;7.75
61542;PMS5003;47414;43.168;44.812;2022-09-09T05:08:27;6.75;6.00;4.00
61542;PMS5003;47414;43.168;44.812;2022-09-09T05:13:28;10.00;10.00;7.75
61542;PMS5003;47414;43.168;44.812;2022-09-09T05:18:28;9.25;9.25;7.00
61542;PMS5003;47414;43.168;44.812;2022-09-09T05:23:29;9.25;9.25;6.25
61542;PMS5003;47414;43.168;44.812;2022-09-09T05:28:29;9.00;9.00;7.25
61542;PMS5003;47414;43.168;44.812;2022-09-09T05:33:30;11.75;11.25;8.00
61542;PMS5003;47414;43.168;44.812;2022-09-09T05:38:31;13.75;12.00;9.00
61542;PMS5003;47414;43.168;44.812;2022-09-09T05:43:31;12.00;11.00;8.75
61542;PMS5003;47414;43.168;44.812;2022-09-09T05:48:32;16.75;15.25;11.50
61542;PMS5003;47414;43.168;44.812;2022-09-09T05:53:33;9.00;8.25;6.00
61542;PMS5003;47414;43.168;44.812;2022-09-09T05:58:34;8.25;8.25;6.50
61542;PMS5003;47414;43.168;44.812;2022-09-09T06:03:35;10.00;10.00;7.00
61542;PMS5003;47414;43.168;44.812;2022-09-09T06:08:36;10.00;9.50;7.50
61542;PMS5003;47414;43.168;44.812;2022-09-09T06:13:37;6.50;6.50;4.00
61542;PMS5003;47414;43.168;44.812;2022-09-09T06:18:38;9.25;8.75;6.75
61542;PMS5003;47414;43.168;44.812;2022-09-09T06:23:39;10.25;9.50;7.00
61542;PMS5003;47414;43.168;44.812;2022-09-09T06:28:42;10.25;10.00;6.25
61542;PMS5003;47414;43.168;44.812;2022-09-09T06:33:43;11.00;11.00;8.00
61542;PMS5003;47414;43.168;44.812;2022-09-09T06:38:44;7.67;6.33;5.00
61542;PMS5003;47414;43.168;44.812;2022-09-09T06:43:45;8.00;8.00;6.00
61542;PMS5003;47414;43.168;44.812;2022-09-09T06:48:45;10.50;10.00;6.00
61542;PMS5003;47414;43.168;44.812;2022-09-09T06:53:46;8.00;8.00;5.00
61542;PMS5003;47414;43.168;44.812;2022-09-09T06:58:47;7.00;7.00;5.50
61542;PMS5003;47414;43.168;44.812;2022-09-09T07:03:48;7.50;6.50;3.25
61542;PMS5003;47414;43.168;44.812;2022-09-09T07:08:49;6.75;6.75;4.25
61542;PMS5003;47414;43.168;44.812;2022-09-09T07:13:49;6.75;6.00;4.00
61542;PMS5003;47414;43.168;44.812;2022-09-09T07:18:50;7.25;7.25;5.75
61542;PMS5003;47414;43.168;44.812;2022-09-09T07:23:51;8.25;8.25;6.00
61542;PMS5003;47414;43.168;44.812;2022-09-09T07:28:51;7.00;7.00;6.00
61542;PMS5003;47414;43.168;44.812;2022-09-09T07:33:51;7.50;7.25;5.00
61542;PMS5003;47414;43.168;44.812;2022-09-09T07:38:53;7.25;7.25;6.00
61542;PMS5003;47414;43.168;44.812;2022-09-09T07:43:54;8.25;8.25;6.50
61542;PMS5003;47414;43.168;44.812;2022-09-09T07:48:55;8.50;8.50;7.25
61542;PMS5003;47414;43.168;44.812;2022-09-09T07:54:03;7.25;7.25;6.00
61542;PMS5003;47414;43.168;44.812;2022-09-09T07:59:04;6.50;6.50;4.75
61542;PMS5003;47414;43.168;44.812;2022-09-09T08:04:05;10.00;10.00;6.25
61542;PMS5003;47414;43.168;44.812;2022-09-09T08:09:06;8.33;8.33;6.00
61542;PMS5003;47414;43.168;44.812;2022-09-09T08:14:08;11.00;11.00;8.00
61542;PMS5003;47414;43.168;44.812;2022-09-09T08:19:08;11.75;11.50;7.25
61542;PMS5003;47414;43.168;44.812;2022-09-09T08:24:09;11.75;11.50;8.75
61542;PMS5003;47414;43.168;44.812;2022-09-09T08:29:10;12.75;12.75;9.00
61542;PMS5003;47414;43.168;44.812;2022-09-09T08:34:11;10.50;9.75;7.75
61542;PMS5003;47414;43.168;44.812;2022-09-09T08:39:13;9.00;8.75;6.75
61542;PMS5003;47414;43.168;44.812;2022-09-09T08:44:23;10.00;9.50;6.25
61542;PMS5003;47414;43.168;44.812;2022-09-09T08:54:45;7.50;6.00;4.00
61542;PMS5003;47414;43.168;44.812;2022-09-09T08:59:46;6.00;5.00;3.25
61542;PMS5003;47414;43.168;44.812;2022-09-09T09:15:05;11.00;11.00;7.25
61542;PMS5003;47414;43.168;44.812;2022-09-09T09:20:11;7.75;7.75;5.00
61542;PMS5003;47414;43.168;44.812;2022-09-09T09:25:22;9.25;9.25;7.50
61542;PMS5003;47414;43.168;44.812;2022-09-09T09:30:24;10.50;10.50;7.00
61542;PMS5003;47414;43.168;44.812;2022-09-09T09:35:26;8.00;8.00;5.75
61542;PMS5003;47414;43.168;44.812;2022-09-09T09:40:26;8.00;8.00;6.00
61542;PMS5003;47414;43.168;44.812;2022-09-09T09:45:28;4.00;3.25;2.25
61542;PMS5003;47414;43.168;44.812;2022-09-09T09:50:30;7.25;7.25;6.25
61542;PMS5003;47414;43.168;44.812;2022-09-09T09:55:31;6.50;6.50;5.75
61542;PMS5003;47414;43.168;44.812;2022-09-09T10:00:33;8.75;8.00;6.75
61542;PMS5003;47414;43.168;44.812;2022-09-09T10:05:35;5.00;5.00;4.00
61542;PMS5003;47414;43.168;44.812;2022-09-09T10:15:47;8.25;8.25;6.00
61542;PMS5003;47414;43.168;44.812;2022-09-09T10:26:16;9.00;8.75;7.00
61542;PMS5003;47414;43.168;44.812;2022-09-09T10:36:22;9.00;9.00;6.20
61542;PMS5003;47414;43.168;44.812;2022-09-09T10:52:17;6.00;6.00;4.25
61542;PMS5003;47414;43.168;44.812;2022-09-09T10:57:26;6.75;6.75;4.50
61542;PMS5003;47414;43.168;44.812;2022-09-09T11:02:28;6.00;6.00;4.75
61542;PMS5003;47414;43.168;44.812;2022-09-09T11:07:43;7.00;6.00;5.00
61542;PMS5003;47414;43.168;44.812;2022-09-09T11:12:44;9.00;9.00;7.00
61542;PMS5003;47414;43.168;44.812;2022-09-09T11:17:47;7.00;7.00;5.67
61542;PMS5003;47414;43.168;44.812;2022-09-09T11:22:54;9.00;8.67;6.00
61542;PMS5003;47414;43.168;44.812;2022-09-09T11:38:07;5.25;5.25;4.25
61542;PMS5003;47414;43.168;44.812;2022-09-09T11:43:13;7.00;7.00;6.00
61542;PMS5003;47414;43.168;44.812;2022-09-09T11:53:27;11.75;10.25;6.50
61542;PMS5003;47414;43.168;44.812;2022-09-09T11:58:27;6.00;6.00;4.00
61542;PMS5003;47414;43.168;44.812;2022-09-09T12:03:33;6.00;6.00;4.25
61542;PMS5003;47414;43.168;44.812;2022-09-09T12:08:34;7.00;7.00;4.00
61542;PMS5003;47414;43.168;44.812;2022-09-09T12:13:35;8.00;8.00;5.00
61542;PMS5003;47414;43.168;44.812;2022-09-09T12:18:36;8.00;7.50;5.50
61542;PMS5003;47414;43.168;44.812;2022-09-09T12:23:53;10.75;9.75;7.00
61542;PMS5003;47414;43.168;44.812;2022-09-09T12:34:13;8.25;8.25;6.50
61542;PMS5003;47414;43.168;44.812;2022-09-09T12:39:19;7.00;7.00;5.50
61542;PMS5003;47414;43.168;44.812;2022-09-09T12:44:23;8.50;8.50;6.00
61542;PMS5003;47414;43.168;44.812;2022-09-09T12:49:37;9.00;9.00;7.00
61542;PMS5003;47414;43.168;44.812;2022-09-09T12:54:42;6.00;6.00;5.00
61542;PMS5003;47414;43.168;44.812;2022-09-09T12:59:44;5.00;5.00;4.00
61542;PMS5003;47414;43.168;44.812;2022-09-09T13:04:44;7.50;6.00;4.50
61542;PMS5003;47414;43.168;44.812;2022-09-09T13:09:45;9.00;9.00;6.50
61542;PMS5003;47414;43.168;44.812;2022-09-09T13:14:50;6.75;6.75;5.75
61542;PMS5003;47414;43.168;44.812;2022-09-09T13:19:52;7.00;7.00;5.00
61542;PMS5003;47414;43.168;44.812;2022-09-09T13:30:24;8.00;8.00;6.25
61542;PMS5003;47414;43.168;44.812;2022-09-09T13:35:25;8.00;7.00;5.00
61542;PMS5003;47414;43.168;44.812;2022-09-09T13:40:25;10.50;9.00;6.25
61542;PMS5003;47414;43.168;44.812;2022-09-09T13:45:27;10.00;9.50;7.00
61542;PMS5003;47414;43.168;44.812;2022-09-09T13:50:28;9.00;8.75;6.50
61542;PMS5003;47414;43.168;44.812;2022-09-09T13:55:36;9.25;9.00;5.00
61542;PMS5003;47414;43.168;44.812;2022-09-09T14:00:36;8.00;7.00;5.50
61542;PMS5003;47414;43.168;44.812;2022-09-09T14:05:37;8.00;7.50;6.00
61542;PMS5003;47414;43.168;44.812;2022-09-09T14:10:37;11.00;11.00;8.25
61542;PMS5003;47414;43.168;44.812;2022-09-09T14:15:38;11.00;10.00;8.00
61542;PMS5003;47414;43.168;44.812;2022-09-09T14:20:38;9.50;9.50;7.75
61542;PMS5003;47414;43.168;44.812;2022-09-09T14:25:42;9.50;9.50;7.25
61542;PMS5003;47414;43.168;44.812;2022-09-09T14:30:43;11.75;11.25;8.00
61542;PMS5003;47414;43.168;44.812;2022-09-09T14:35:43;57.00;46.00;30.50
61542;PMS5003;47414;43.168;44.812;2022-09-09T14:40:44;52.50;44.25;28.25
61542;PMS5003;47414;43.168;44.812;2022-09-09T14:45:45;37.00;33.00;22.50
61542;PMS5003;47414;43.168;44.812;2022-09-09T14:50:45;38.50;33.75;23.25
61542;PMS5003;47414;43.168;44.812;2022-09-09T14:55:45;15.75;14.50;10.50
61542;PMS5003;47414;43.168;44.812;2022-09-09T15:00:46;18.00;18.00;13.20
61542;PMS5003;47414;43.168;44.812;2022-09-09T15:05:46;18.00;17.00;10.25
61542;PMS5003;47414;43.168;44.812;2022-09-09T15:10:46;19.00;19.00;13.25
61542;PMS5003;47414;43.168;44.812;2022-09-09T15:15:47;30.50;28.00;20.25
61542;PMS5003;47414;43.168;44.812;2022-09-09T15:20:47;32.75;28.25;20.25
61542;PMS5003;47414;43.168;44.812;2022-09-09T15:25:52;30.00;27.75;19.50
61542;PMS5003;47414;43.168;44.812;2022-09-09T15:30:53;21.00;21.00;16.00
61542;PMS5003;47414;43.168;44.812;2022-09-09T15:35:53;17.50;17.50;13.25
61542;PMS5003;47414;43.168;44.812;2022-09-09T15:40:54;11.75;11.00;8.00
61542;PMS5003;47414;43.168;44.812;2022-09-09T15:45:56;14.50;13.25;10.00
61542;PMS5003;47414;43.168;44.812;2022-09-09T15:51:03;16.25;16.25;10.25
61542;PMS5003;47414;43.168;44.812;2022-09-09T15:56:04;17.25;16.25;13.00
61542;PMS5003;47414;43.168;44.812;2022-09-09T16:01:08;23.75;23.50;17.50
61542;PMS5003;47414;43.168;44.812;2022-09-09T16:06:09;40.00;35.00;24.50
61542;PMS5003;47414;43.168;44.812;2022-09-09T16:16:13;35.00;31.50;21.50
61542;PMS5003;47414;43.168;44.812;2022-09-09T16:21:15;28.75;26.50;21.00
61542;PMS5003;47414;43.168;44.812;2022-09-09T16:26:17;21.50;20.50;14.00
61542;PMS5003;47414;43.168;44.812;2022-09-09T16:31:21;13.75;12.50;9.75
61542;PMS5003;47414;43.168;44.812;2022-09-09T16:36:23;11.00;10.25;8.00
61542;PMS5003;47414;43.168;44.812;2022-09-09T16:41:27;9.25;9.25;6.75
61542;PMS5003;47414;43.168;44.812;2022-09-09T16:46:27;11.75;11.25;8.00
61542;PMS5003;47414;43.168;44.812;2022-09-09T16:51:29;12.00;12.00;8.00
61542;PMS5003;47414;43.168;44.812;2022-09-09T16:56:30;11.25;11.25;7.00
61542;PMS5003;47414;43.168;44.812;2022-09-09T17:01:33;13.25;12.25;8.50
61542;PMS5003;47414;43.168;44.812;2022-09-09T17:06:34;12.25;12.00;7.25
61542;PMS5003;47414;43.168;44.812;2022-09-09T17:11:34;11.75;10.25;7.50
61542;PMS5003;47414;43.168;44.812;2022-09-09T17:16:35;13.00;11.75;8.00
61542;PMS5003;47414;43.168;44.812;2022-09-09T17:21:36;11.75;11.75;8.25
61542;PMS5003;47414;43.168;44.812;2022-09-09T17:26:37;11.25;11.25;7.25
61542;PMS5003;47414;43.168;44.812;2022-09-09T17:31:38;12.00;11.75;9.75
61542;PMS5003;47414;43.168;44.812;2022-09-09T17:36:38;10.50;10.50;8.25
61542;PMS5003;47414;43.168;44.812;2022-09-09T17:41:39;13.00;13.00;9.25
61542;PMS5003;47414;43.168;44.812;2022-09-09T17:46:40;18.75;18.25;12.00
61542;PMS5003;47414;43.168;44.812;2022-09-09T17:51:41;15.50;15.25;11.50
61542;PMS5003;47414;43.168;44.812;2022-09-09T17:56:42;17.25;17.00;12.25
61542;PMS5003;47414;43.168;44.812;2022-09-09T18:01:43;15.00;13.00;10.00
61542;PMS5003;47414;43.168;44.812;2022-09-09T18:06:45;12.25;12.25;8.50
61542;PMS5003;47414;43.168;44.812;2022-09-09T18:11:47;13.00;13.00;9.75
61542;PMS5003;47414;43.168;44.812;2022-09-09T18:16:48;14.25;13.75;9.50
61542;PMS5003;47414;43.168;44.812;2022-09-09T18:21:49;15.00;14.50;9.75
61542;PMS5003;47414;43.168;44.812;2022-09-09T18:26:49;15.50;14.75;9.75
61542;PMS5003;47414;43.168;44.812;2022-09-09T18:31:50;13.25;12.25;9.00
61542;PMS5003;47414;43.168;44.812;2022-09-09T18:36:51;13.25;12.25;9.25
61542;PMS5003;47414;43.168;44.812;2022-09-09T18:41:53;14.00;13.50;9.00
61542;PMS5003;47414;43.168;44.812;2022-09-09T18:46:54;13.00;12.00;8.00
61542;PMS5003;47414;43.168;44.812;2022-09-09T18:51:54;11.25;11.25;8.00
61542;PMS5003;47414;43.168;44.812;2022-09-09T18:56:55;14.00;13.25;9.50
61542;PMS5003;47414;43.168;44.812;2022-09-09T19:01:55;13.00;11.50;8.75
61542;PMS5003;47414;43.168;44.812;2022-09-09T19:06:56;14.00;13.25;9.00
61542;PMS5003;47414;43.168;44.812;2022-09-09T19:11:56;12.75;12.50;7.25
61542;PMS5003;47414;43.168;44.812;2022-09-09T19:16:57;9.00;9.00;7.00
61542;PMS5003;47414;43.168;44.812;2022-09-09T19:21:58;12.00;10.50;8.25
61542;PMS5003;47414;43.168;44.812;2022-09-09T19:27:02;10.50;9.75;7.00
61542;PMS5003;47414;43.168;44.812;2022-09-09T19:32:03;11.25;11.25;8.00
61542;PMS5003;47414;43.168;44.812;2022-09-09T19:37:04;12.75;11.50;8.25
61542;PMS5003;47414;43.168;44.812;2022-09-09T19:42:04;11.50;10.25;8.00
61542;PMS5003;47414;43.168;44.812;2022-09-09T19:47:04;12.00;12.00;7.00
61542;PMS5003;47414;43.168;44.812;2022-09-09T19:52:05;10.25;10.25;7.25
61542;PMS5003;47414;43.168;44.812;2022-09-09T19:57:05;10.00;10.00;6.00
61542;PMS5003;47414;43.168;44.812;2022-09-09T20:02:06;9.75;9.75;7.25
61542;PMS5003;47414;43.168;44.812;2022-09-09T20:07:06;11.75;11.50;9.25
61542;PMS5003;47414;43.168;44.812;2022-09-09T20:12:06;11.25;11.25;8.00
61542;PMS5003;47414;43.168;44.812;2022-09-09T20:17:07;7.00;6.50;3.25
61542;PMS5003;47414;43.168;44.812;2022-09-09T20:22:08;10.00;9.50;7.00
61542;PMS5003;47414;43.168;44.812;2022-09-09T20:27:09;12.75;12.50;8.25
61542;PMS5003;47414;43.168;44.812;2022-09-09T20:32:09;13.50;11.25;8.00
61542;PMS5003;47414;43.168;44.812;2022-09-09T20:37:09;10.75;10.75;8.00
61542;PMS5003;47414;43.168;44.812;2022-09-09T20:42:10;10.50;10.25;6.00
61542;PMS5003;47414;43.168;44.812;2022-09-09T20:47:10;12.25;12.25;9.50
61542;PMS5003;47414;43.168;44.812;2022-09-09T20:52:10;13.00;12.25;8.00
61542;PMS5003;47414;43.168;44.812;2022-09-09T20:57:11;12.50;11.75;8.50
61542;PMS5003;47414;43.168;44.812;2022-09-09T21:02:11;13.50;13.00;10.00
61542;PMS5003;47414;43.168;44.812;2022-09-09T21:07:11;14.00;14.00;11.00
61542;PMS5003;47414;43.168;44.812;2022-09-09T21:12:12;11.25;11.25;8.25
61542;PMS5003;47414;43.168;44.812;2022-09-09T21:17:12;11.75;11.50;8.75
61542;PMS5003;47414;43.168;44.812;2022-09-09T21:22:12;14.50;13.00;9.50
61542;PMS5003;47414;43.168;44.812;2022-09-09T21:27:13;15.25;14.50;10.25
61542;PMS5003;47414;43.168;44.812;2022-09-09T21:32:13;12.00;11.25;8.00
61542;PMS5003;47414;43.168;44.812;2022-09-09T21:37:13;16.25;16.25;11.75
61542;PMS5003;47414;43.168;44.812;2022-09-09T21:42:14;11.25;11.25;8.00
61542;PMS5003;47414;43.168;44.812;2022-09-09T21:47:14;12.00;11.75;9.50
61542;PMS5003;47414;43.168;44.812;2022-09-09T21:52:14;13.25;12.75;10.00
61542;PMS5003;47414;43.168;44.812;2022-09-09T21:57:15;13.00;12.25;9.50
61542;PMS5003;47414;43.168;44.812;2022-09-09T22:02:15;12.50;12.00;8.25
61542;PMS5003;47414;43.168;44.812;2022-09-09T22:07:15;14.25;14.25;10.75
61542;PMS5003;47414;43.168;44.812;2022-09-09T22:12:16;15.00;14.75;11.25
61542;PMS5003;47414;43.168;44.812;2022-09-09T22:17:18;15.50;15.50;11.75
61542;PMS5003;47414;43.168;44.812;2022-09-09T22:22:19;13.75;13.75;9.00
61542;PMS5003;47414;43.168;44.812;2022-09-09T22:27:19;12.75;12.00;10.00
61542;PMS5003;47414;43.168;44.812;2022-09-09T22:32:19;14.25;13.75;10.25
61542;PMS5003;47414;43.168;44.812;2022-09-09T22:37:20;16.50;15.00;10.00
61542;PMS5003;47414;43.168;44.812;2022-09-09T22:42:20;10.50;9.00;5.00
61542;PMS5003;47414;43.168;44.812;2022-09-09T22:47:20;17.00;15.50;12.75
61542;PMS5003;47414;43.168;44.812;2022-09-09T22:52:21;22.00;21.25;15.25
61542;PMS5003;47414;43.168;44.812;2022-09-09T22:57:21;25.00;23.75;17.00
61542;PMS5003;47414;43.168;44.812;2022-09-09T23:02:21;23.00;23.00;16.50
61542;PMS5003;47414;43.168;44.812;2022-09-09T23:07:22;22.00;20.25;16.00
61542;PMS5003;47414;43.168;44.812;2022-09-09T23:12:22;22.50;21.25;16.00
61542;PMS5003;47414;43.168;44.812;2022-09-09T23:17:23;20.00;19.00;15.00
61542;PMS5003;47414;43.168;44.812;2022-09-09T23:22:23;25.25;21.00;15.25
61542;PMS5003;47414;43.168;44.812;2022-09-09T23:27:23;25.75;24.75;15.25
61542;PMS5003;47414;43.168;44.812;2022-09-09T23:32:24;19.00;18.25;13.00
61542;PMS5003;47414;43.168;44.812;2022-09-09T23:37:24;19.50;19.00;13.25
61542;PMS5003;47414;43.168;44.812;2022-09-09T23:42:25;18.25;16.25;11.25
61542;PMS5003;47414;43.168;44.812;2022-09-09T23:47:25;16.25;16.00;12.00
61542;PMS5003;47414;43.168;44.812;2022-09-09T23:52:25;21.50;19.50;13.00
61542;PMS5003;47414;43.168;44.812;2022-09-09T23:57:26;14.50;14.00;9.75
